createdAt,value
2023-05-19T00:00:37.147Z,4.28
2023-05-19T00:03:05.104Z,3.97
2023-05-19T00:05:33.488Z,4.03
2023-05-19T00:08:02.460Z,3.80
2023-05-19T00:10:31.747Z,4.15
2023-05-19T00:12:59.786Z,4.30
2023-05-19T00:15:27.562Z,4.63
2023-05-19T00:17:55.534Z,4.15
2023-05-19T00:20:23.282Z,4.05
2023-05-19T00:22:51.423Z,4.38
2023-05-19T00:25:19.039Z,4.18
2023-05-19T00:27:46.649Z,3.90
2023-05-19T00:30:14.471Z,4.45
2023-05-19T00:32:42.126Z,4.20
2023-05-19T00:35:09.971Z,4.40
2023-05-19T00:37:38.134Z,3.95
2023-05-19T00:40:07.087Z,4.10
2023-05-19T00:42:34.897Z,3.95
2023-05-19T00:45:02.531Z,4.47
2023-05-19T00:47:30.229Z,4.05
2023-05-19T00:49:57.866Z,3.67
2023-05-19T00:52:26.038Z,4.20
2023-05-19T00:54:55.775Z,4.18
2023-05-19T00:57:23.501Z,4.20
2023-05-19T00:59:51.131Z,4.57
2023-05-19T01:02:18.736Z,4.10
2023-05-19T01:04:46.992Z,4.10
2023-05-19T01:07:16.372Z,4.50
2023-05-19T01:09:44.327Z,3.80
2023-05-19T01:12:12.365Z,4.43
2023-05-19T01:14:40.754Z,4.07
2023-05-19T01:17:23.092Z,3.85
2023-05-19T01:20:02.012Z,4.18
2023-05-19T01:22:58.992Z,3.75
2023-05-19T01:25:45.590Z,3.60
2023-05-19T01:28:23.335Z,4.45
2023-05-19T01:30:55.204Z,4.47
2023-05-19T01:33:23.978Z,3.70
2023-05-19T01:35:52.136Z,3.92
2023-05-19T01:38:21.058Z,4.43
2023-05-19T01:40:50.298Z,4.07
2023-05-19T01:43:21.176Z,3.78
2023-05-19T01:45:49.476Z,3.97
2023-05-19T01:48:18.133Z,4.13
2023-05-19T01:50:46.523Z,4.15
2023-05-19T01:53:14.184Z,4.50
2023-05-19T01:55:49.478Z,4.32
2023-05-19T01:58:19.933Z,3.95
2023-05-19T02:00:50.829Z,3.75
2023-05-19T02:03:33.608Z,4.80
2023-05-19T02:06:14.474Z,4.63
2023-05-19T02:08:51.322Z,4.18
2023-05-19T02:11:26.156Z,4.40
2023-05-19T02:13:56.803Z,4.53
2023-05-19T02:16:28.985Z,4.60
2023-05-19T02:18:57.298Z,4.43
2023-05-19T02:21:24.987Z,4.45
2023-05-19T02:23:52.696Z,4.57
2023-05-19T02:26:21.607Z,4.20
2023-05-19T02:28:50.214Z,4.18
2023-05-19T02:31:18.813Z,4.13
2023-05-19T02:33:46.432Z,4.28
2023-05-19T02:36:14.756Z,4.97
2023-05-19T02:38:42.304Z,4.75
2023-05-19T02:41:09.946Z,3.78
2023-05-19T02:43:37.658Z,4.05
2023-05-19T02:46:05.372Z,4.60
2023-05-19T02:48:32.970Z,4.35
2023-05-19T02:51:00.540Z,4.22
2023-05-19T02:53:28.126Z,4.63
2023-05-19T02:55:55.817Z,4.50
2023-05-19T02:58:23.408Z,4.55
2023-05-19T03:00:51.406Z,4.60
2023-05-19T03:03:19.755Z,4.68
2023-05-19T03:05:48.145Z,4.63
2023-05-19T03:08:15.765Z,5.03
2023-05-19T03:10:43.382Z,4.22
2023-05-19T03:13:11.216Z,4.60
2023-05-19T03:15:39.112Z,4.43
2023-05-19T03:18:06.784Z,4.35
2023-05-19T03:20:34.581Z,4.63
2023-05-19T03:23:02.329Z,5.07
2023-05-19T03:25:30.059Z,4.65
2023-05-19T03:27:57.729Z,4.28
2023-05-19T03:30:25.573Z,4.28
2023-05-19T03:33:09.929Z,4.40
2023-05-19T03:35:37.770Z,4.43
2023-05-19T03:38:05.942Z,4.80
2023-05-19T03:40:33.810Z,4.55
2023-05-19T03:43:06.165Z,4.82
2023-05-19T03:45:38.308Z,4.47
2023-05-19T03:48:22.508Z,4.55
2023-05-19T03:51:08.974Z,4.50
2023-05-19T03:53:36.646Z,5.38
2023-05-19T03:56:04.608Z,4.47
2023-05-19T03:58:33.340Z,5.05
2023-05-19T04:01:01.056Z,4.47
2023-05-19T04:03:28.737Z,4.35
2023-05-19T04:05:56.441Z,5.00
2023-05-19T04:08:24.045Z,4.78
2023-05-19T04:10:51.646Z,4.55
2023-05-19T04:13:19.322Z,4.38
2023-05-19T04:15:47.051Z,4.93
2023-05-19T04:18:14.707Z,4.43
2023-05-19T04:20:42.360Z,4.65
2023-05-19T04:23:10.459Z,4.60
2023-05-19T04:25:40.729Z,4.43
2023-05-19T04:28:08.417Z,4.70
2023-05-19T04:30:36.955Z,5.32
2023-05-19T04:33:05.278Z,4.80
2023-05-19T04:35:33.014Z,4.93
2023-05-19T04:38:02.773Z,4.78
2023-05-19T04:40:33.160Z,4.90
2023-05-19T04:43:02.271Z,4.30
2023-05-19T04:45:32.962Z,4.45
2023-05-19T04:48:02.495Z,4.72
2023-05-19T04:50:32.325Z,4.38
2023-05-19T04:53:00.980Z,4.50
2023-05-19T04:55:28.717Z,4.18
2023-05-19T04:57:56.341Z,4.80
2023-05-19T05:00:25.310Z,4.85
2023-05-19T05:02:58.355Z,4.90
2023-05-19T05:05:28.565Z,4.90
2023-05-19T05:07:57.362Z,4.70
2023-05-19T05:10:27.600Z,4.28
2023-05-19T05:12:55.398Z,5.25
2023-05-19T05:15:24.296Z,5.25
2023-05-19T05:17:52.450Z,5.10
2023-05-19T05:20:21.194Z,4.68
2023-05-19T05:22:48.914Z,5.18
2023-05-19T05:25:17.316Z,4.70
2023-05-19T05:27:45.690Z,4.68
2023-05-19T05:30:14.522Z,4.57
2023-05-19T05:32:42.870Z,4.80
2023-05-19T05:35:22.153Z,4.95
2023-05-19T05:37:50.236Z,4.82
2023-05-19T05:40:18.305Z,4.35
2023-05-19T05:42:46.285Z,5.25
2023-05-19T05:45:14.180Z,4.78
2023-05-19T05:47:42.604Z,4.50
2023-05-19T05:50:10.953Z,5.20
2023-05-19T05:52:38.957Z,5.65
2023-05-19T05:55:07.042Z,5.10
2023-05-19T05:57:36.480Z,4.97
2023-05-19T06:00:07.771Z,4.60
2023-05-19T06:02:50.487Z,4.80
2023-05-19T06:05:19.702Z,5.15
2023-05-19T06:07:48.822Z,4.82
2023-05-19T06:10:22.342Z,4.55
2023-05-19T06:12:51.242Z,4.10
2023-05-19T06:15:19.859Z,5.00
2023-05-19T06:18:13.595Z,4.60
2023-05-19T06:20:41.287Z,4.53
2023-05-19T06:23:08.976Z,4.25
2023-05-19T06:25:36.972Z,4.60
2023-05-19T06:28:04.673Z,4.40
2023-05-19T06:30:33.168Z,4.50
2023-05-19T06:33:15.370Z,4.22
2023-05-19T06:35:43.633Z,4.88
2023-05-19T06:38:11.348Z,4.40
2023-05-19T06:40:38.997Z,4.45
2023-05-19T06:43:06.735Z,4.15
2023-05-19T06:45:54.556Z,4.85
2023-05-19T06:48:23.586Z,4.57
2023-05-19T06:50:51.806Z,4.10
2023-05-19T06:53:23.712Z,4.07
2023-05-19T06:55:59.457Z,4.22
2023-05-19T06:58:30.966Z,4.45
2023-05-19T07:01:00.350Z,4.15
2023-05-19T07:03:32.789Z,4.15
2023-05-19T07:06:00.614Z,4.00
2023-05-19T07:08:29.104Z,3.65
2023-05-19T07:10:58.061Z,4.25
2023-05-19T07:13:27.493Z,4.38
2023-05-19T07:15:56.772Z,4.33
2023-05-19T07:18:25.487Z,4.07
2023-05-19T07:20:53.846Z,4.07
2023-05-19T07:23:21.863Z,4.03
2023-05-19T07:25:49.444Z,3.67
2023-05-19T07:28:17.091Z,4.45
2023-05-19T07:30:44.718Z,4.03
2023-05-19T07:33:12.442Z,3.72
2023-05-19T07:35:40.428Z,3.90
2023-05-19T07:38:08.071Z,4.18
2023-05-19T07:40:35.749Z,4.40
2023-05-19T07:43:03.397Z,4.28
2023-05-19T07:45:31.018Z,4.65
2023-05-19T07:47:58.682Z,4.43
2023-05-19T07:50:26.910Z,4.93
2023-05-19T07:52:54.568Z,4.25
2023-05-19T07:55:23.208Z,4.53
2023-05-19T07:57:51.372Z,4.38
2023-05-19T08:00:19.117Z,5.68
2023-05-19T08:02:47.209Z,4.88
2023-05-19T08:05:14.959Z,4.47
2023-05-19T08:07:42.573Z,4.70
2023-05-19T08:10:10.547Z,5.05
2023-05-19T08:12:38.163Z,5.25
2023-05-19T08:15:06.224Z,4.75
2023-05-19T08:17:33.877Z,4.63
2023-05-19T08:20:01.551Z,5.15
2023-05-19T08:22:29.135Z,4.50
2023-05-19T08:24:56.908Z,4.32
2023-05-19T08:27:26.507Z,4.97
2023-05-19T08:29:55.807Z,4.50
2023-05-19T08:32:24.568Z,4.88
2023-05-19T08:34:52.216Z,4.70
2023-05-19T08:37:19.783Z,4.72
2023-05-19T08:39:47.423Z,4.47
2023-05-19T08:42:15.356Z,5.10
2023-05-19T08:44:44.088Z,4.55
2023-05-19T08:47:14.724Z,5.07
2023-05-19T08:49:46.229Z,4.68
2023-05-19T08:52:36.316Z,4.75
2023-05-19T08:55:10.968Z,4.82
2023-05-19T08:57:39.124Z,4.30
2023-05-19T09:00:12.065Z,4.80
2023-05-19T09:02:50.438Z,4.20
2023-05-19T09:05:27.596Z,4.50
2023-05-19T09:07:55.341Z,4.82
2023-05-19T09:10:23.127Z,4.28
2023-05-19T09:12:51.445Z,5.18
2023-05-19T09:15:19.271Z,4.60
2023-05-19T09:17:50.469Z,4.93
2023-05-19T09:20:18.232Z,5.07
2023-05-19T09:22:47.312Z,4.88
2023-05-19T09:25:19.159Z,4.22
2023-05-19T09:27:48.451Z,4.40
2023-05-19T09:30:19.378Z,4.60
2023-05-19T09:32:47.966Z,4.75
2023-05-19T09:35:20.495Z,4.80
2023-05-19T09:37:48.260Z,4.18
2023-05-19T09:40:16.323Z,4.30
2023-05-19T09:42:44.277Z,3.88
2023-05-19T09:45:11.976Z,4.60
2023-05-19T09:47:42.706Z,4.53
2023-05-19T09:50:11.234Z,4.55
2023-05-19T09:52:39.537Z,4.55
2023-05-19T09:55:10.215Z,4.72
2023-05-19T09:57:38.513Z,4.38
2023-05-19T10:00:15.285Z,4.75
2023-05-19T10:02:44.034Z,4.60
2023-05-19T10:05:17.384Z,5.13
2023-05-19T10:07:45.793Z,4.70
2023-05-19T10:10:14.064Z,5.65
2023-05-19T10:12:42.289Z,5.13
2023-05-19T10:15:11.415Z,4.65
2023-05-19T10:17:42.619Z,4.53
2023-05-19T10:20:11.088Z,5.10
2023-05-19T10:22:39.224Z,4.95
2023-05-19T10:25:07.492Z,5.10
2023-05-19T10:27:41.354Z,5.60
2023-05-19T10:30:12.757Z,4.88
2023-05-19T10:32:43.319Z,6.20
2023-05-19T10:35:26.105Z,5.78
2023-05-19T10:38:12.752Z,5.25
2023-05-19T10:40:58.717Z,5.13
2023-05-19T10:43:36.891Z,5.72
2023-05-19T10:46:06.263Z,5.57
2023-05-19T10:48:36.421Z,5.70
2023-05-19T10:51:07.076Z,5.68
2023-05-19T10:53:35.071Z,6.45
2023-05-19T10:56:04.112Z,5.95
2023-05-19T10:58:40.962Z,5.35
2023-05-19T11:01:10.049Z,6.15
2023-05-19T11:03:46.152Z,6.30
2023-05-19T11:06:19.828Z,5.82
2023-05-19T11:08:50.433Z,5.93
2023-05-19T11:11:18.115Z,5.30
2023-05-19T11:13:49.212Z,5.82
2023-05-19T11:16:20.162Z,5.70
2023-05-19T11:18:50.859Z,6.20
2023-05-19T11:21:20.571Z,5.75
2023-05-19T11:23:48.205Z,6.18
2023-05-19T11:26:16.011Z,6.65
2023-05-19T11:28:43.874Z,6.03
2023-05-19T11:31:11.581Z,6.10
2023-05-19T11:33:40.035Z,6.70
2023-05-19T11:36:08.653Z,6.00
2023-05-19T11:38:36.383Z,6.93
2023-05-19T11:41:04.663Z,5.95
2023-05-19T11:43:32.330Z,6.43
2023-05-19T11:46:00.239Z,6.75
2023-05-19T11:48:28.054Z,6.32
2023-05-19T11:50:56.742Z,6.10
2023-05-19T11:53:24.543Z,6.13
2023-05-19T11:55:52.386Z,5.75
2023-05-19T11:58:26.867Z,5.43
2023-05-19T12:00:54.750Z,5.90
2023-05-19T12:03:22.826Z,6.78
2023-05-19T12:05:50.807Z,6.35
2023-05-19T12:08:18.839Z,6.32
2023-05-19T12:10:52.180Z,6.50
2023-05-19T12:13:20.882Z,7.07
2023-05-19T12:15:48.457Z,6.75
2023-05-19T12:18:16.093Z,7.00
2023-05-19T12:20:43.840Z,8.10
2023-05-19T12:23:11.562Z,7.30
2023-05-19T12:25:39.368Z,7.68
2023-05-19T12:28:07.730Z,6.78
2023-05-19T12:30:35.786Z,7.25
2023-05-19T12:33:03.941Z,7.35
2023-05-19T12:35:35.990Z,8.90
2023-05-19T12:38:09.785Z,7.75
2023-05-19T12:40:42.165Z,8.02
2023-05-19T12:43:21.371Z,7.75
2023-05-19T12:45:49.476Z,7.15
2023-05-19T12:48:17.247Z,7.43
2023-05-19T12:50:45.327Z,7.68
2023-05-19T12:53:13.190Z,7.13
2023-05-19T12:55:44.157Z,6.97
2023-05-19T12:58:12.592Z,7.70
2023-05-19T13:00:45.080Z,7.47
2023-05-19T13:03:16.835Z,7.22
2023-05-19T13:05:46.742Z,7.30
2023-05-19T13:08:15.469Z,7.20
2023-05-19T13:10:43.988Z,7.50
2023-05-19T13:13:11.683Z,6.18
2023-05-19T13:15:41.797Z,6.45
2023-05-19T13:18:10.504Z,6.72
2023-05-19T13:20:38.758Z,6.53
2023-05-19T13:23:06.605Z,5.95
2023-05-19T13:25:34.738Z,6.57
2023-05-19T13:28:05.466Z,6.13
2023-05-19T13:30:34.069Z,6.55
2023-05-19T13:33:02.209Z,6.18
2023-05-19T13:35:30.687Z,6.50
2023-05-19T13:37:58.363Z,6.20
2023-05-19T13:40:28.074Z,6.32
2023-05-19T13:42:55.734Z,6.82
2023-05-19T13:45:23.369Z,6.78
2023-05-19T13:47:51.269Z,7.00
2023-05-19T13:50:18.925Z,7.15
2023-05-19T13:52:46.490Z,6.97
2023-05-19T13:55:14.063Z,6.40
2023-05-19T13:57:44.019Z,6.30
2023-05-19T14:00:12.283Z,6.40
2023-05-19T14:02:40.490Z,6.63
2023-05-19T14:05:08.563Z,6.03
2023-05-19T14:07:36.422Z,5.93
2023-05-19T14:10:05.584Z,6.13
2023-05-19T14:12:45.016Z,6.35
2023-05-19T14:15:21.160Z,6.28
2023-05-19T14:17:49.035Z,6.38
2023-05-19T14:20:16.857Z,5.85
2023-05-19T14:22:44.516Z,6.13
2023-05-19T14:25:12.182Z,5.88
2023-05-19T14:27:40.050Z,6.45
2023-05-19T14:30:08.543Z,6.13
2023-05-19T14:32:36.229Z,5.97
2023-05-19T14:35:04.081Z,6.25
2023-05-19T14:37:32.195Z,5.78
2023-05-19T14:40:00.249Z,6.20
2023-05-19T14:42:27.851Z,6.05
2023-05-19T14:44:55.889Z,6.22
2023-05-19T14:47:24.355Z,5.50
2023-05-19T14:49:52.868Z,5.72
2023-05-19T14:52:20.450Z,6.05
2023-05-19T14:54:48.030Z,5.57
2023-05-19T14:57:15.666Z,6.00
2023-05-19T14:59:44.311Z,6.13
2023-05-19T15:02:12.611Z,5.47
2023-05-19T15:04:40.226Z,6.25
2023-05-19T15:07:10.770Z,6.15
2023-05-19T15:09:38.703Z,6.00
2023-05-19T15:12:06.411Z,5.88
2023-05-19T15:14:34.017Z,6.25
2023-05-19T15:17:01.672Z,6.05
2023-05-19T15:19:29.440Z,5.97
2023-05-19T15:21:58.119Z,5.90
2023-05-19T15:24:25.760Z,6.20
2023-05-19T15:26:54.248Z,6.60
2023-05-19T15:29:22.051Z,5.65
2023-05-19T15:31:52.631Z,6.20
2023-05-19T15:34:20.801Z,6.32
2023-05-19T15:36:48.442Z,6.82
2023-05-19T15:39:16.157Z,5.95
2023-05-19T15:41:43.763Z,6.50
2023-05-19T15:44:11.382Z,6.70
2023-05-19T15:46:40.097Z,6.07
2023-05-19T15:49:07.774Z,5.82
2023-05-19T15:51:35.960Z,6.40
2023-05-19T15:54:03.615Z,6.60
2023-05-19T15:56:31.237Z,6.32
2023-05-19T15:58:58.882Z,6.80
2023-05-19T16:01:26.624Z,6.72
2023-05-19T16:03:54.532Z,6.43
2023-05-19T16:06:22.366Z,6.10
2023-05-19T16:08:49.981Z,7.18
2023-05-19T16:11:18.200Z,6.65
2023-05-19T16:13:45.783Z,6.20
2023-05-19T16:16:13.449Z,7.00
2023-05-19T16:18:41.685Z,6.57
2023-05-19T16:21:09.275Z,6.25
2023-05-19T16:23:44.528Z,6.40
2023-05-19T16:26:12.277Z,6.38
2023-05-19T16:28:39.902Z,5.95
2023-05-19T16:31:07.491Z,7.35
2023-05-19T16:33:35.130Z,6.03
2023-05-19T16:36:03.788Z,6.18
2023-05-19T16:38:31.497Z,5.82
2023-05-19T16:40:59.080Z,5.78
2023-05-19T16:43:26.747Z,5.60
2023-05-19T16:45:54.377Z,5.80
2023-05-19T16:48:22.023Z,6.43
2023-05-19T16:50:49.743Z,5.65
2023-05-19T16:53:17.404Z,5.55
2023-05-19T16:55:44.992Z,5.35
2023-05-19T16:58:12.703Z,5.20
2023-05-19T17:00:40.300Z,5.28
2023-05-19T17:03:08.001Z,5.53
2023-05-19T17:05:37.017Z,5.22
2023-05-19T17:08:04.802Z,5.57
2023-05-19T17:10:32.539Z,5.18
2023-05-19T17:13:00.296Z,5.30
2023-05-19T17:15:28.003Z,4.82
2023-05-19T17:17:55.614Z,5.57
2023-05-19T17:20:23.256Z,5.88
2023-05-19T17:22:50.979Z,5.15
2023-05-19T17:25:18.599Z,5.47
2023-05-19T17:27:46.317Z,5.50
2023-05-19T17:30:14.409Z,5.03
2023-05-19T17:32:42.152Z,4.78
2023-05-19T17:35:09.917Z,5.32
2023-05-19T17:37:37.691Z,5.60
2023-05-19T17:40:05.531Z,4.88
2023-05-19T17:42:33.200Z,5.05
2023-05-19T17:45:00.971Z,4.90
2023-05-19T17:47:28.693Z,4.05
2023-05-19T17:49:56.397Z,4.68
2023-05-19T17:52:25.526Z,4.18
2023-05-19T17:54:53.652Z,4.85
2023-05-19T17:57:24.786Z,4.65
2023-05-19T17:59:52.504Z,4.93
2023-05-19T18:02:20.187Z,4.78
2023-05-19T18:04:48.048Z,4.75
2023-05-19T18:07:16.534Z,4.72
2023-05-19T18:09:46.293Z,5.03
2023-05-19T18:12:14.028Z,4.35
2023-05-19T18:14:41.640Z,4.40
2023-05-19T18:17:09.259Z,4.45
2023-05-19T18:19:36.905Z,5.00
2023-05-19T18:22:04.570Z,5.07
2023-05-19T18:24:32.129Z,4.47
2023-05-19T18:26:59.797Z,4.90
2023-05-19T18:29:27.426Z,4.80
2023-05-19T18:31:55.165Z,4.60
2023-05-19T18:34:22.787Z,4.85
2023-05-19T18:36:50.372Z,4.95
2023-05-19T18:39:17.997Z,4.63
2023-05-19T18:41:47.136Z,4.72
2023-05-19T18:44:14.710Z,4.70
2023-05-19T18:46:42.295Z,4.80
2023-05-19T18:49:11.855Z,4.03
2023-05-19T18:51:39.723Z,4.50
2023-05-19T18:54:08.426Z,4.32
2023-05-19T18:56:36.093Z,4.68
2023-05-19T18:59:03.688Z,5.00
2023-05-19T19:01:31.347Z,4.72
2023-05-19T19:03:59.031Z,4.75
2023-05-19T19:06:26.639Z,4.63
2023-05-19T19:08:54.279Z,5.00
2023-05-19T19:11:22.393Z,4.70
2023-05-19T19:13:51.299Z,5.40
2023-05-19T19:16:19.118Z,5.53
2023-05-19T19:18:46.846Z,4.93
2023-05-19T19:21:14.544Z,5.22
2023-05-19T19:23:43.211Z,5.15
2023-05-19T19:26:10.881Z,5.20
2023-05-19T19:28:38.552Z,4.72
2023-05-19T19:31:06.295Z,5.05
2023-05-19T19:33:33.911Z,4.95
2023-05-19T19:36:01.749Z,5.13
2023-05-19T19:38:29.322Z,5.03
2023-05-19T19:40:56.936Z,5.38
2023-05-19T19:43:24.613Z,4.55
2023-05-19T19:45:59.883Z,5.40
2023-05-19T19:48:27.886Z,5.10
2023-05-19T19:50:55.898Z,5.05
2023-05-19T19:53:23.777Z,5.05
2023-05-19T19:56:01.114Z,5.32
2023-05-19T19:58:29.604Z,4.85
2023-05-19T20:01:00.797Z,5.32
2023-05-19T20:03:28.630Z,4.97
2023-05-19T20:05:56.917Z,4.68
2023-05-19T20:08:25.158Z,4.95
2023-05-19T20:10:52.856Z,5.30
2023-05-19T20:13:20.592Z,5.20
2023-05-19T20:15:48.351Z,5.30
2023-05-19T20:18:16.235Z,4.80
2023-05-19T20:20:44.059Z,4.78
2023-05-19T20:23:13.217Z,6.10
2023-05-19T20:25:58.538Z,5.53
2023-05-19T20:28:30.450Z,4.82
2023-05-19T20:30:58.052Z,5.80
2023-05-19T20:33:25.655Z,4.80
2023-05-19T20:35:53.366Z,5.03
2023-05-19T20:38:20.933Z,4.97
2023-05-19T20:40:48.715Z,4.70
2023-05-19T20:43:16.500Z,4.72
2023-05-19T20:45:44.509Z,4.90
2023-05-19T20:48:12.357Z,4.93
2023-05-19T20:50:40.457Z,4.50
2023-05-19T20:53:08.120Z,4.40
2023-05-19T20:55:36.492Z,4.75
2023-05-19T20:58:04.117Z,4.75
2023-05-19T21:00:32.096Z,4.45
2023-05-19T21:03:00.138Z,4.30
2023-05-19T21:05:27.809Z,3.90
2023-05-19T21:07:55.525Z,4.35
2023-05-19T21:10:23.197Z,4.00
2023-05-19T21:12:50.983Z,3.40
2023-05-19T21:15:18.686Z,4.20
2023-05-19T21:17:46.673Z,3.95
2023-05-19T21:20:14.373Z,4.13
2023-05-19T21:22:41.946Z,3.85
2023-05-19T21:25:09.703Z,3.15
2023-05-19T21:27:39.375Z,3.75
2023-05-19T21:30:07.409Z,3.33
2023-05-19T21:32:35.318Z,3.42
2023-05-19T21:35:02.987Z,3.15
2023-05-19T21:37:30.719Z,3.30
2023-05-19T21:39:58.440Z,3.58
2023-05-19T21:42:26.141Z,2.95
2023-05-19T21:44:53.760Z,3.30
2023-05-19T21:47:21.392Z,2.70
2023-05-19T21:49:49.042Z,3.10
2023-05-19T21:52:16.723Z,2.92
2023-05-19T21:54:44.307Z,2.88
2023-05-19T21:57:12.626Z,2.97
2023-05-19T21:59:40.316Z,2.90
2023-05-19T22:02:08.193Z,3.10
2023-05-19T22:04:36.054Z,2.95
2023-05-19T22:07:03.676Z,3.17
2023-05-19T22:09:31.361Z,3.35
2023-05-19T22:11:58.964Z,2.95
2023-05-19T22:14:26.577Z,2.95
2023-05-19T22:16:55.303Z,2.97
2023-05-19T22:19:23.030Z,3.08
2023-05-19T22:21:55.905Z,3.55
2023-05-19T22:24:30.052Z,3.08
2023-05-19T22:26:57.738Z,3.45
2023-05-19T22:29:25.359Z,3.47
2023-05-19T22:31:52.949Z,3.30
2023-05-19T22:34:20.758Z,3.17
2023-05-19T22:36:48.393Z,3.10
2023-05-19T22:39:16.446Z,3.58
2023-05-19T22:41:45.320Z,2.92
2023-05-19T22:44:16.075Z,3.22
2023-05-19T22:46:46.573Z,3.20
2023-05-19T22:49:14.210Z,3.72
2023-05-19T22:51:41.816Z,3.55
2023-05-19T22:54:10.461Z,3.53
2023-05-19T22:56:39.034Z,3.67
2023-05-19T22:59:06.706Z,3.65
2023-05-19T23:01:34.380Z,3.80
2023-05-19T23:04:02.071Z,3.88
2023-05-19T23:06:29.813Z,3.35
2023-05-19T23:09:03.721Z,4.13
2023-05-19T23:11:31.515Z,3.95
2023-05-19T23:13:59.123Z,3.95
2023-05-19T23:16:26.767Z,3.95
2023-05-19T23:18:54.483Z,3.63
2023-05-19T23:21:22.051Z,3.83
2023-05-19T23:23:50.337Z,3.83
2023-05-19T23:26:17.889Z,4.15
2023-05-19T23:28:45.873Z,3.58
2023-05-19T23:31:13.580Z,3.50
2023-05-19T23:33:41.188Z,3.70
2023-05-19T23:36:09.805Z,3.67
2023-05-19T23:38:37.730Z,3.85
2023-05-19T23:41:05.799Z,3.80
2023-05-19T23:43:33.501Z,3.92
2023-05-19T23:46:01.547Z,4.00
2023-05-19T23:48:29.500Z,4.00
2023-05-19T23:50:57.804Z,4.28
2023-05-19T23:53:25.704Z,3.85
2023-05-19T23:55:53.556Z,3.72
2023-05-19T23:58:23.201Z,3.67
